Time;durP1;ratioP1;P1;durP2;ratioP2;P2;SDS_P1;SDS_P2;PMS_P1;PMS_P2;Temp;Humidity;BMP_temperature;BMP_pressure;BME280_temperature;BME280_humidity;BME280_pressure;Samples;Min_cycle;Max_cycle;Signal;HPM_P1;HPM_P2
2022/12/11 00:02:19;;;;;;;15.40;8.37;;;-1.40;99.90;;;;;;5017355;28;20178;-91
2022/12/11 00:04:45;;;;;;;17.27;9.00;;;-1.40;99.90;;;;;;5018033;28;20209;-90
2022/12/11 00:07:18;;;;;;;18.77;9.37;;;-1.40;99.90;;;;;;5017749;28;20182;-90
2022/12/11 00:09:44;;;;;;;20.03;9.13;;;-1.40;99.90;;;;;;5035580;28;20210;-91
2022/12/11 00:12:10;;;;;;;21.07;10.23;;;-1.40;99.90;;;;;;5017912;28;20178;-91
2022/12/11 00:14:35;;;;;;;16.57;7.77;;;-1.40;99.90;;;;;;5017705;28;20217;-91
2022/12/11 00:17:01;;;;;;;15.07;7.43;;;-1.40;99.90;;;;;;5017331;28;20494;-91
2022/12/11 00:19:27;;;;;;;14.47;6.90;;;-1.40;99.90;;;;;;5017993;28;20175;-90
2022/12/11 00:21:52;;;;;;;13.83;7.83;;;-1.40;99.90;;;;;;5017783;28;20190;-91
2022/12/11 00:24:18;;;;;;;15.00;7.10;;;-1.50;99.90;;;;;;5017399;28;20179;-91
2022/12/11 00:26:44;;;;;;;12.90;7.00;;;-1.50;99.90;;;;;;5017064;28;20189;-91
2022/12/11 00:29:13;;;;;;;22.17;9.10;;;-1.50;99.90;;;;;;5017393;28;20221;-90
2022/12/11 00:31:40;;;;;;;16.77;8.10;;;-1.50;99.90;;;;;;5017430;28;20186;-91
2022/12/11 00:34:06;;;;;;;13.30;7.50;;;-1.40;99.90;;;;;;5017543;28;20637;-91
2022/12/11 00:36:32;;;;;;;13.87;7.37;;;-1.40;99.90;;;;;;5017302;28;20277;-90
2022/12/11 00:38:59;;;;;;;17.73;8.30;;;-1.40;99.90;;;;;;5017713;28;20190;-90
2022/12/11 00:41:25;;;;;;;16.63;8.13;;;-1.40;99.90;;;;;;5017658;28;20215;-90
2022/12/11 00:43:51;;;;;;;15.47;8.43;;;-1.40;99.90;;;;;;5017285;28;20206;-90
2022/12/11 00:46:18;;;;;;;15.03;8.17;;;-1.40;99.90;;;;;;5017343;28;20671;-90
2022/12/11 00:48:45;;;;;;;14.50;7.97;;;-1.50;99.90;;;;;;5017303;28;20178;-91
2022/12/11 00:51:11;;;;;;;17.53;9.20;;;-1.50;99.90;;;;;;5017463;28;20188;-91
2022/12/11 00:53:38;;;;;;;15.47;8.23;;;-1.50;99.90;;;;;;5033850;28;20201;-91
2022/12/11 00:56:12;;;;;;;12.00;7.37;;;-1.50;99.90;;;;;;5034873;28;20178;-90
2022/12/11 00:58:37;;;;;;;14.33;7.67;;;-1.40;99.90;;;;;;5017358;28;20793;-91
2022/12/11 01:01:13;;;;;;;13.90;8.00;;;-1.40;99.90;;;;;;5010541;28;20211;-91
2022/12/11 01:03:39;;;;;;;12.97;7.30;;;-1.40;99.90;;;;;;5030477;28;20605;-90
2022/12/11 01:06:13;;;;;;;13.97;7.80;;;-1.40;99.90;;;;;;5030288;28;20179;-90
2022/12/11 01:11:16;;;;;;;12.37;7.07;;;-1.60;99.90;;;;;;5392271;22;20232;-87
2022/12/11 01:13:42;;;;;;;13.93;7.47;;;-1.60;99.90;;;;;;5055772;28;20621;-87
2022/12/11 01:16:12;;;;;;;11.93;7.27;;;-1.50;99.90;;;;;;5055641;28;20169;-87
2022/12/11 01:18:38;;;;;;;12.97;7.37;;;-1.60;99.90;;;;;;5055952;28;20210;-88
2022/12/11 01:21:12;;;;;;;14.27;7.97;;;-1.60;99.90;;;;;;5055753;28;20214;-87
2022/12/11 01:23:38;;;;;;;14.33;8.10;;;-1.60;99.90;;;;;;5055726;28;20264;-87
2022/12/11 01:26:12;;;;;;;14.23;8.10;;;-1.60;99.90;;;;;;5055665;28;20273;-87
2022/12/11 01:28:39;;;;;;;14.00;8.17;;;-1.60;99.90;;;;;;5055579;28;20173;-86
2022/12/11 01:31:13;;;;;;;13.43;6.87;;;-1.60;99.90;;;;;;5055433;28;20185;-87
2022/12/11 01:33:39;;;;;;;17.90;8.00;;;-1.60;99.90;;;;;;5055538;28;20264;-87
2022/12/11 01:36:17;;;;;;;15.07;7.47;;;-1.60;99.90;;;;;;5073410;28;20177;-86
2022/12/11 01:38:45;;;;;;;12.30;7.27;;;-1.60;99.90;;;;;;5073510;28;20185;-87
2022/12/11 01:41:12;;;;;;;12.53;7.20;;;-1.50;99.90;;;;;;5052477;28;20178;-87
2022/12/11 01:44:07;;;;;;;14.43;7.50;;;-1.50;99.90;;;;;;5034255;28;20182;-86
2022/12/11 01:46:35;;;;;;;10.37;6.87;;;-1.50;99.90;;;;;;5047741;28;20619;-86
2022/12/11 01:49:04;;;;;;;14.40;7.83;;;-1.50;99.90;;;;;;5058687;28;20251;-88
2022/12/11 01:51:38;;;;;;;11.97;6.77;;;-1.50;99.90;;;;;;5057534;28;20188;-86
2022/12/11 01:54:07;;;;;;;12.50;7.33;;;-1.50;99.90;;;;;;5076418;28;20180;-86
2022/12/11 01:56:35;;;;;;;12.90;7.03;;;-1.50;99.90;;;;;;5076321;28;20178;-86
2022/12/11 01:59:06;;;;;;;13.30;7.37;;;-1.50;99.90;;;;;;5076208;28;20262;-87
2022/12/11 02:01:49;;;;;;;11.23;6.70;;;-1.60;99.90;;;;;;5077575;28;20165;-87
2022/12/11 02:04:17;;;;;;;11.13;6.33;;;-1.60;99.90;;;;;;5076104;28;20188;-85
2022/12/11 02:06:46;;;;;;;12.83;6.90;;;-1.50;99.90;;;;;;5075910;28;20249;-87
2022/12/11 02:09:15;;;;;;;15.63;7.97;;;-1.60;99.90;;;;;;5059605;28;20207;-86
2022/12/11 02:12:01;;;;;;;17.47;7.40;;;-1.60;99.90;;;;;;5072595;28;20678;-87
2022/12/11 02:14:40;;;;;;;13.30;7.73;;;-1.50;99.90;;;;;;5055852;28;20184;-87
2022/12/11 02:17:18;;;;;;;12.43;6.60;;;-1.60;99.90;;;;;;5055970;28;20546;-86
2022/12/11 02:20:05;;;;;;;11.03;7.13;;;-1.50;99.90;;;;;;5055909;28;20209;-86
2022/12/11 02:22:59;;;;;;;13.57;7.10;;;-1.60;99.90;;;;;;5055918;28;20209;-87
2022/12/11 02:25:33;;;;;;;14.07;7.43;;;-1.60;99.90;;;;;;5055333;28;20174;-87
2022/12/11 02:28:27;;;;;;;13.00;7.00;;;-1.60;99.90;;;;;;5055087;28;20505;-87
2022/12/11 02:31:09;;;;;;;12.63;6.60;;;-1.60;99.90;;;;;;5054885;28;20213;-86
2022/12/11 02:33:49;;;;;;;11.70;6.67;;;-1.60;99.90;;;;;;5055568;28;20216;-86
2022/12/11 02:36:18;;;;;;;11.33;7.07;;;-1.60;99.90;;;;;;5055280;28;20214;-86
2022/12/11 02:38:49;;;;;;;11.33;6.27;;;-1.60;99.90;;;;;;5055435;28;20617;-86
2022/12/11 02:41:18;;;;;;;10.97;6.90;;;-1.60;99.90;;;;;;5055468;28;20172;-86
2022/12/11 02:43:48;;;;;;;13.67;7.20;;;-1.70;99.90;;;;;;5055123;28;20615;-86
2022/12/11 02:46:15;;;;;;;10.37;6.37;;;-1.70;99.90;;;;;;5055324;28;20266;-86
2022/12/11 02:48:43;;;;;;;9.20;5.57;;;-1.70;99.90;;;;;;5055061;28;20243;-86
2022/12/11 02:51:10;;;;;;;11.57;6.63;;;-1.70;99.90;;;;;;5054970;28;20206;-87
2022/12/11 02:53:41;;;;;;;10.93;6.43;;;-1.70;99.90;;;;;;5054969;28;20173;-86
2022/12/11 02:56:12;;;;;;;12.37;6.80;;;-1.70;99.90;;;;;;5054130;28;20177;-86
2022/12/11 02:58:46;;;;;;;12.23;6.77;;;-1.70;99.90;;;;;;5054924;28;20521;-86
2022/12/11 03:01:12;;;;;;;11.33;6.70;;;-1.70;99.90;;;;;;5054621;28;20185;-86
2022/12/11 03:03:38;;;;;;;10.93;7.03;;;-1.70;99.90;;;;;;5056114;28;20184;-86
2022/12/11 03:06:04;;;;;;;10.70;6.63;;;-1.70;99.90;;;;;;5055835;28;20200;-86
2022/12/11 03:08:31;;;;;;;12.10;6.57;;;-1.70;99.90;;;;;;5054900;28;20180;-86
2022/12/11 03:10:56;;;;;;;12.27;6.77;;;-1.70;99.90;;;;;;5054660;28;20234;-86
2022/12/11 03:13:25;;;;;;;9.13;6.07;;;-1.70;99.90;;;;;;5054584;28;20273;-87
2022/12/11 03:15:51;;;;;;;13.23;6.90;;;-1.70;99.90;;;;;;5054658;28;20185;-86
2022/12/11 03:18:35;;;;;;;12.63;6.53;;;-1.70;99.90;;;;;;5054515;28;20177;-86
2022/12/11 03:21:35;;;;;;;10.50;6.57;;;-1.70;99.90;;;;;;5054381;28;20170;-86
2022/12/11 03:24:09;;;;;;;14.07;6.53;;;-1.80;99.90;;;;;;5054337;28;20181;-86
2022/12/11 03:26:41;;;;;;;13.17;6.53;;;-1.80;99.90;;;;;;5053855;28;20176;-86
2022/12/11 03:29:33;;;;;;;12.87;6.97;;;-1.80;99.90;;;;;;5053801;28;20205;-86
2022/12/11 03:32:08;;;;;;;9.73;5.87;;;-1.80;99.90;;;;;;5053975;28;20204;-86
2022/12/11 03:34:49;;;;;;;11.40;6.60;;;-1.80;99.90;;;;;;5054290;28;20509;-86
2022/12/11 03:37:16;;;;;;;11.90;6.63;;;-1.80;99.90;;;;;;5055046;28;20168;-85
2022/12/11 03:39:47;;;;;;;11.43;6.53;;;-1.80;99.90;;;;;;5054206;28;20178;-87
2022/12/11 03:42:16;;;;;;;11.50;6.37;;;-1.80;99.90;;;;;;5054982;28;20497;-86
2022/12/11 03:44:48;;;;;;;10.17;5.93;;;-1.80;99.90;;;;;;5053951;28;20201;-84
2022/12/11 03:47:20;;;;;;;8.67;6.00;;;-1.80;99.90;;;;;;5053868;28;20207;-86
2022/12/11 03:49:49;;;;;;;11.00;6.23;;;-1.90;99.90;;;;;;5053908;28;20666;-86
2022/12/11 03:52:18;;;;;;;10.00;5.63;;;-1.90;99.90;;;;;;5053758;28;20192;-87
2022/12/11 03:54:48;;;;;;;9.77;5.93;;;-1.90;99.90;;;;;;5055249;28;20508;-85
2022/12/11 03:57:19;;;;;;;9.83;6.17;;;-1.90;99.90;;;;;;5054980;28;20223;-85
2022/12/11 03:59:46;;;;;;;10.07;6.43;;;-1.90;99.90;;;;;;5053748;28;20676;-86
2022/12/11 04:02:11;;;;;;;11.30;6.27;;;-1.80;99.90;;;;;;5053680;28;20212;-86
2022/12/11 04:04:39;;;;;;;12.77;6.47;;;-1.90;99.90;;;;;;5053544;28;20250;-86
2022/12/11 04:07:05;;;;;;;11.23;6.50;;;-1.80;99.90;;;;;;5052958;28;20205;-86
2022/12/11 04:09:31;;;;;;;9.00;5.60;;;-1.80;99.90;;;;;;5053465;28;20307;-86
2022/12/11 04:11:57;;;;;;;12.60;6.70;;;-1.80;99.90;;;;;;5056616;28;20374;-85
2022/12/11 04:17:08;;;;;;;10.73;6.00;;;-1.80;99.90;;;;;;5074980;28;20217;-85
2022/12/11 04:25:05;;;;;;;15.40;6.57;;;-1.80;99.90;;;;;;5054667;28;20172;-86
2022/12/11 04:27:48;;;;;;;13.10;7.47;;;-1.80;99.90;;;;;;5054247;28;20173;-87
2022/12/11 04:30:32;;;;;;;10.87;6.77;;;-1.80;99.90;;;;;;5053744;28;20206;-86
2022/12/11 04:32:58;;;;;;;12.77;6.67;;;-1.90;99.90;;;;;;5036177;28;20251;-86
2022/12/11 04:35:24;;;;;;;13.63;7.23;;;-1.80;99.90;;;;;;5035848;28;20282;-87
2022/12/11 04:37:51;;;;;;;15.03;6.50;;;-1.80;99.90;;;;;;5036176;28;20173;-87
2022/12/11 04:40:18;;;;;;;14.07;7.37;;;-1.80;99.90;;;;;;5053815;28;20173;-87
2022/12/11 04:42:44;;;;;;;12.20;7.40;;;-1.80;99.90;;;;;;5036000;28;20201;-86
2022/12/11 04:45:11;;;;;;;13.13;7.10;;;-1.80;99.90;;;;;;5036028;28;20259;-86
2022/12/11 04:47:38;;;;;;;13.67;6.80;;;-1.80;99.90;;;;;;5035666;28;20173;-86
2022/12/11 04:50:07;;;;;;;14.50;7.80;;;-1.80;99.90;;;;;;5053719;28;20233;-87
2022/12/11 04:52:33;;;;;;;13.20;7.03;;;-1.80;99.90;;;;;;5048205;28;20269;-86
2022/12/11 04:54:59;;;;;;;12.33;7.17;;;-1.70;99.90;;;;;;5053756;28;20226;-87
2022/12/11 04:57:25;;;;;;;12.37;6.97;;;-1.70;99.90;;;;;;5036356;28;20631;-86
2022/12/11 04:59:50;;;;;;;14.83;7.60;;;-1.80;99.90;;;;;;5036410;28;20491;-85
2022/12/11 05:02:16;;;;;;;13.53;6.53;;;-1.80;99.90;;;;;;5036195;28;20261;-86
2022/12/11 05:04:42;;;;;;;11.70;7.07;;;-1.80;99.90;;;;;;5036305;28;20504;-85
2022/12/11 05:07:09;;;;;;;14.27;7.20;;;-1.80;99.90;;;;;;5036061;28;20513;-85
2022/12/11 05:09:35;;;;;;;11.67;7.43;;;-1.80;99.90;;;;;;5036141;28;20292;-85
2022/12/11 05:12:02;;;;;;;14.17;7.37;;;-1.80;99.90;;;;;;5056076;28;20188;-86
2022/12/11 05:14:30;;;;;;;13.27;7.67;;;-1.80;99.90;;;;;;5056130;28;20246;-85
2022/12/11 05:16:57;;;;;;;13.30;7.73;;;-1.90;99.90;;;;;;5056289;28;20188;-86
2022/12/11 05:19:23;;;;;;;13.17;7.40;;;-1.90;99.90;;;;;;5076896;28;20184;-85
2022/12/11 05:21:49;;;;;;;13.50;7.57;;;-1.90;99.90;;;;;;5047116;28;20186;-87
2022/12/11 05:24:17;;;;;;;12.07;6.47;;;-1.90;99.90;;;;;;5032734;28;20638;-86
2022/12/11 05:26:42;;;;;;;15.23;7.73;;;-1.90;99.90;;;;;;5039888;28;20173;-86
2022/12/11 05:29:08;;;;;;;11.90;6.67;;;-1.90;99.90;;;;;;5039815;28;20209;-86
2022/12/11 05:31:34;;;;;;;13.93;7.27;;;-1.90;99.90;;;;;;5039815;28;20176;-86
2022/12/11 05:34:00;;;;;;;13.10;7.37;;;-2.00;99.90;;;;;;5039740;28;20634;-85
2022/12/11 05:36:28;;;;;;;12.47;6.47;;;-1.90;99.90;;;;;;5039233;28;20210;-87
2022/12/11 05:38:56;;;;;;;11.17;6.50;;;-2.00;99.90;;;;;;5039627;28;20251;-85
2022/12/11 05:41:24;;;;;;;16.20;8.07;;;-2.00;99.90;;;;;;5039512;28;20189;-86
2022/12/11 05:43:56;;;;;;;14.83;8.03;;;-2.00;99.90;;;;;;5057435;28;20513;-85
2022/12/11 05:46:24;;;;;;;13.00;6.83;;;-2.00;99.90;;;;;;5039651;28;20263;-86
2022/12/11 05:48:53;;;;;;;13.97;7.93;;;-2.00;99.90;;;;;;5039106;28;20625;-86
2022/12/11 05:51:19;;;;;;;13.77;7.27;;;-2.00;99.90;;;;;;5039141;28;20195;-86
2022/12/11 05:53:47;;;;;;;14.50;7.80;;;-2.00;99.90;;;;;;5039271;28;20181;-86
2022/12/11 05:56:15;;;;;;;13.70;6.80;;;-2.10;99.90;;;;;;5039286;28;20174;-85
2022/12/11 05:58:43;;;;;;;13.40;7.60;;;-2.00;99.90;;;;;;5039134;28;20732;-85
2022/12/11 06:01:12;;;;;;;17.67;7.77;;;-2.10;99.90;;;;;;5056920;28;20252;-85
2022/12/11 06:03:38;;;;;;;14.00;7.20;;;-2.10;99.90;;;;;;5039089;28;20184;-85
2022/12/11 06:06:05;;;;;;;15.17;7.53;;;-2.00;99.90;;;;;;5038903;28;20207;-85
2022/12/11 06:08:31;;;;;;;14.60;7.70;;;-2.10;99.90;;;;;;5038798;28;20268;-84
2022/12/11 06:10:57;;;;;;;15.63;8.23;;;-2.10;99.90;;;;;;5037166;28;20268;-85
2022/12/11 06:13:23;;;;;;;14.93;7.67;;;-2.00;99.90;;;;;;5038598;28;20578;-86
2022/12/11 06:15:49;;;;;;;14.03;7.83;;;-2.00;99.90;;;;;;5038626;28;20177;-86
2022/12/11 06:18:15;;;;;;;15.67;8.30;;;-2.10;99.90;;;;;;5056316;28;20181;-86
2022/12/11 06:20:44;;;;;;;16.07;7.87;;;-2.10;99.90;;;;;;5056001;28;20478;-85
2022/12/11 06:23:09;;;;;;;14.40;7.77;;;-2.00;99.90;;;;;;5038635;28;20185;-86
2022/12/11 06:25:37;;;;;;;15.90;8.27;;;-2.10;99.90;;;;;;5038453;28;20673;-86
2022/12/11 06:28:03;;;;;;;14.73;7.57;;;-2.00;99.90;;;;;;5038394;28;20185;-85
2022/12/11 06:30:32;;;;;;;13.90;7.57;;;-2.00;99.90;;;;;;5038485;28;20228;-85
2022/12/11 06:32:58;;;;;;;15.80;7.53;;;-2.00;99.90;;;;;;5038626;28;20181;-84
2022/12/11 06:35:25;;;;;;;19.70;10.83;;;-2.00;99.90;;;;;;5038602;28;20210;-85
2022/12/11 06:37:50;;;;;;;19.23;10.27;;;-2.00;99.90;;;;;;5038068;28;20180;-84
2022/12/11 06:40:16;;;;;;;20.87;9.07;;;-2.00;99.90;;;;;;5038237;28;20182;-84
2022/12/11 06:42:42;;;;;;;18.07;9.00;;;-2.00;99.90;;;;;;5055976;28;20241;-86
2022/12/11 06:45:08;;;;;;;18.10;8.97;;;-2.00;99.90;;;;;;5037887;28;20179;-85
2022/12/11 06:47:34;;;;;;;15.53;8.27;;;-2.00;99.90;;;;;;5055666;28;20172;-86
2022/12/11 06:50:01;;;;;;;18.00;8.87;;;-2.00;99.90;;;;;;5037936;28;20216;-85
2022/12/11 06:52:27;;;;;;;16.03;8.60;;;-2.10;99.90;;;;;;5037524;28;20199;-85
2022/12/11 06:54:53;;;;;;;16.67;8.97;;;-2.10;99.90;;;;;;5055704;28;20174;-86
2022/12/11 06:57:19;;;;;;;14.90;7.97;;;-2.10;99.90;;;;;;5036744;28;20189;-86
2022/12/11 06:59:45;;;;;;;14.73;7.53;;;-2.10;99.90;;;;;;5036563;28;20181;-86
2022/12/11 07:02:16;;;;;;;15.50;8.57;;;-2.00;99.90;;;;;;5037655;28;20182;-86
2022/12/11 07:04:42;;;;;;;14.97;7.80;;;-2.10;99.90;;;;;;5037466;28;20181;-87
2022/12/11 07:07:09;;;;;;;15.43;8.37;;;-2.10;99.90;;;;;;5037375;28;20180;-86
2022/12/11 07:09:37;;;;;;;16.03;8.97;;;-2.10;99.90;;;;;;5037232;28;20228;-86
2022/12/11 07:12:03;;;;;;;16.03;8.27;;;-2.10;99.90;;;;;;5075299;28;20250;-86
2022/12/11 07:14:30;;;;;;;13.63;8.00;;;-2.20;99.90;;;;;;5057220;28;20226;-86
2022/12/11 07:16:56;;;;;;;15.77;7.93;;;-2.20;99.90;;;;;;5056817;28;20177;-86
2022/12/11 07:19:22;;;;;;;14.80;8.03;;;-2.20;99.90;;;;;;5057008;28;20189;-86
2022/12/11 07:21:48;;;;;;;17.70;8.60;;;-2.20;99.90;;;;;;5056990;28;20174;-85
2022/12/11 07:24:14;;;;;;;16.27;8.33;;;-2.20;99.90;;;;;;5074852;28;20517;-85
2022/12/11 07:26:40;;;;;;;15.23;8.50;;;-2.20;99.90;;;;;;5057257;28;20184;-85
2022/12/11 07:29:05;;;;;;;17.83;9.17;;;-2.20;99.90;;;;;;5056951;28;20184;-85
2022/12/11 07:31:31;;;;;;;18.43;8.93;;;-2.20;99.90;;;;;;5074968;28;20192;-86
2022/12/11 07:34:00;;;;;;;19.17;9.10;;;-2.20;99.90;;;;;;5057122;28;20172;-86
2022/12/11 07:36:27;;;;;;;16.97;8.30;;;-2.20;99.90;;;;;;5073863;28;20187;-85
2022/12/11 07:38:53;;;;;;;17.70;8.90;;;-2.20;99.90;;;;;;5073887;28;20183;-85
2022/12/11 07:41:20;;;;;;;15.70;8.30;;;-2.10;99.90;;;;;;5073381;28;20632;-85
2022/12/11 07:43:46;;;;;;;16.63;7.90;;;-2.10;99.90;;;;;;5073302;28;20181;-85
2022/12/11 07:46:15;;;;;;;23.30;11.13;;;-2.10;99.90;;;;;;5074240;28;20515;-86
2022/12/11 07:48:43;;;;;;;74.07;41.00;;;-2.10;99.90;;;;;;5056432;28;20640;-86
2022/12/11 07:51:25;;;;;;;26.63;13.87;;;-2.10;99.90;;;;;;5074232;28;20239;-86
2022/12/11 07:53:52;;;;;;;17.13;10.13;;;-2.00;99.90;;;;;;5056428;28;20264;-86
2022/12/11 07:56:18;;;;;;;20.63;10.40;;;-2.00;99.90;;;;;;5074346;28;20204;-86
2022/12/11 07:58:45;;;;;;;17.80;9.13;;;-1.90;99.90;;;;;;5056115;28;20200;-86
2022/12/11 08:01:15;;;;;;;16.00;8.63;;;-2.00;99.90;;;;;;5052466;28;20188;-85
2022/12/11 08:03:42;;;;;;;18.87;10.03;;;-1.90;99.90;;;;;;5046324;28;20173;-85
2022/12/11 08:06:08;;;;;;;16.67;8.37;;;-1.90;99.90;;;;;;5043752;28;20173;-85
2022/12/11 08:08:34;;;;;;;15.20;9.00;;;-2.00;99.90;;;;;;5050748;28;20177;-86
2022/12/11 08:11:04;;;;;;;14.63;7.87;;;-2.00;99.90;;;;;;5048018;28;20290;-86
2022/12/11 08:13:30;;;;;;;17.13;8.30;;;-2.10;99.90;;;;;;5042180;28;20185;-87
2022/12/11 08:15:55;;;;;;;15.87;7.97;;;-2.10;99.90;;;;;;5035781;28;20502;-86
2022/12/11 08:18:21;;;;;;;18.43;8.83;;;-2.10;99.90;;;;;;5036168;28;20189;-85
2022/12/11 08:20:47;;;;;;;17.40;9.13;;;-2.20;99.90;;;;;;5036234;28;20556;-85
2022/12/11 08:23:13;;;;;;;20.50;10.23;;;-2.20;99.90;;;;;;5053945;28;20181;-85
2022/12/11 08:25:40;;;;;;;28.70;14.23;;;-2.20;99.90;;;;;;5036159;28;20178;-85
2022/12/11 08:28:05;;;;;;;26.13;13.80;;;-2.10;99.90;;;;;;5036188;28;20169;-85
2022/12/11 08:30:32;;;;;;;26.90;12.77;;;-2.20;99.90;;;;;;5065824;28;20643;-85
2022/12/11 08:32:58;;;;;;;21.47;10.50;;;-2.20;99.90;;;;;;5051509;28;20169;-86
2022/12/11 08:35:25;;;;;;;20.60;9.90;;;-2.20;99.90;;;;;;5053697;28;20185;-85
2022/12/11 08:37:51;;;;;;;21.63;10.50;;;-2.20;99.90;;;;;;5042100;28;20176;-86
2022/12/11 08:40:17;;;;;;;22.33;11.73;;;-2.10;99.90;;;;;;5041673;28;20188;-86
2022/12/11 08:42:43;;;;;;;25.93;15.47;;;-2.20;99.90;;;;;;5073459;28;20173;-85
2022/12/11 08:45:09;;;;;;;18.17;11.30;;;-2.10;99.90;;;;;;5054297;28;20491;-85
2022/12/11 08:47:35;;;;;;;21.87;10.07;;;-2.10;99.90;;;;;;5055414;28;20177;-85
2022/12/11 08:50:02;;;;;;;23.87;10.60;;;-2.10;99.90;;;;;;5055478;28;20716;-85
2022/12/11 08:52:30;;;;;;;22.17;9.93;;;-2.10;99.90;;;;;;5055623;28;20183;-86
2022/12/11 08:54:57;;;;;;;26.70;10.60;;;-2.10;99.90;;;;;;5059582;28;20187;-86
2022/12/11 08:57:23;;;;;;;15.40;8.90;;;-2.10;99.90;;;;;;5059523;28;20184;-85
2022/12/11 08:59:48;;;;;;;17.57;8.97;;;-2.20;99.90;;;;;;5059510;28;20234;-84
2022/12/11 09:02:14;;;;;;;17.27;8.37;;;-2.10;99.90;;;;;;5059458;28;20187;-86
2022/12/11 09:04:40;;;;;;;19.53;9.17;;;-2.10;99.90;;;;;;5077515;28;20504;-85
2022/12/11 09:07:06;;;;;;;17.03;8.70;;;-2.10;99.90;;;;;;5059372;28;20176;-85
2022/12/11 09:09:32;;;;;;;14.93;8.63;;;-2.10;99.90;;;;;;5059417;28;20666;-85
2022/12/11 09:11:58;;;;;;;17.10;8.67;;;-2.10;99.90;;;;;;5059267;28;20281;-85
2022/12/11 09:14:26;;;;;;;15.97;8.83;;;-2.10;99.90;;;;;;5061768;28;20242;-84
2022/12/11 09:16:52;;;;;;;19.93;9.30;;;-2.10;99.90;;;;;;5059052;28;20192;-85
2022/12/11 09:19:18;;;;;;;17.60;8.90;;;-2.00;99.90;;;;;;5059499;28;20177;-85
2022/12/11 09:21:44;;;;;;;15.20;8.80;;;-2.00;99.90;;;;;;5076385;28;20187;-86
2022/12/11 09:24:11;;;;;;;15.83;8.27;;;-2.00;99.90;;;;;;5076519;28;20188;-86
2022/12/11 09:26:37;;;;;;;16.07;9.47;;;-2.00;99.90;;;;;;5058969;28;20542;-84
2022/12/11 09:29:04;;;;;;;15.73;8.43;;;-1.90;99.90;;;;;;5052620;28;20312;-84
2022/12/11 09:31:33;;;;;;;14.90;8.40;;;-1.90;99.90;;;;;;5052486;28;20178;-84
2022/12/11 09:34:04;;;;;;;16.53;8.70;;;-1.90;99.90;;;;;;5066080;28;20208;-86
2022/12/11 09:36:30;;;;;;;16.73;8.80;;;-1.90;99.90;;;;;;5050469;28;20170;-87
2022/12/11 09:39:03;;;;;;;13.80;7.97;;;-1.90;99.90;;;;;;5048806;28;20167;-87
2022/12/11 09:41:39;;;;;;;14.87;8.13;;;-1.80;99.90;;;;;;5048076;28;20166;-87
2022/12/11 09:44:04;;;;;;;13.37;7.70;;;-1.80;99.90;;;;;;5048909;28;20170;-86
2022/12/11 09:46:32;;;;;;;14.80;7.83;;;-1.80;99.90;;;;;;5056233;28;20530;-87
2022/12/11 09:48:59;;;;;;;12.33;6.87;;;-1.70;99.90;;;;;;5058701;28;20166;-86
2022/12/11 09:51:48;;;;;;;13.40;7.23;;;-1.70;99.90;;;;;;5039594;28;20225;-85
2022/12/11 09:54:14;;;;;;;13.70;7.90;;;-1.70;99.90;;;;;;5048640;28;20193;-85
2022/12/11 09:56:58;;;;;;;13.10;7.40;;;-1.60;99.90;;;;;;5068398;28;20181;-85
2022/12/11 09:59:38;;;;;;;14.90;8.10;;;-1.60;99.90;;;;;;5042277;28;20215;-86
2022/12/11 10:02:41;;;;;;;11.17;7.17;;;-1.60;99.90;;;;;;5067123;28;20182;-86
2022/12/11 10:05:06;;;;;;;11.80;6.60;;;-1.60;99.90;;;;;;5063073;28;20182;-87
2022/12/11 10:07:50;;;;;;;14.07;7.23;;;-1.50;99.90;;;;;;5046851;28;20273;-86
2022/12/11 10:10:34;;;;;;;15.80;7.87;;;-1.50;99.90;;;;;;5037567;28;20229;-86
2022/12/11 10:13:29;;;;;;;12.93;7.33;;;-1.50;99.90;;;;;;5044934;28;20317;-87
2022/12/11 10:16:28;;;;;;;11.27;6.63;;;-1.50;99.90;;;;;;5067154;28;20272;-87
2022/12/11 10:18:54;;;;;;;14.07;7.67;;;-1.40;99.90;;;;;;5042804;28;20273;-86
2022/12/11 10:21:21;;;;;;;15.30;8.50;;;-1.40;99.90;;;;;;5042707;28;20194;-85
2022/12/11 10:23:57;;;;;;;14.50;7.07;;;-1.40;99.90;;;;;;5039684;28;20189;-85
2022/12/11 10:26:27;;;;;;;13.33;7.30;;;-1.40;99.90;;;;;;5043271;28;20189;-86
2022/12/11 10:28:54;;;;;;;12.17;6.77;;;-1.40;99.90;;;;;;5048264;28;20196;-86
2022/12/11 10:31:52;;;;;;;14.27;7.10;;;-1.40;99.90;;;;;;5042723;28;20304;-86
2022/12/11 10:34:42;;;;;;;15.10;7.83;;;-1.30;99.90;;;;;;5056528;28;20182;-86
2022/12/11 10:37:10;;;;;;;16.50;7.70;;;-1.30;99.90;;;;;;5054287;28;20505;-86
2022/12/11 10:39:36;;;;;;;21.17;9.93;;;-1.30;99.90;;;;;;5042153;28;20209;-86
2022/12/11 10:42:19;;;;;;;14.87;8.60;;;-1.40;99.90;;;;;;5048440;28;20519;-87
2022/12/11 10:45:00;;;;;;;10.97;6.80;;;-1.30;99.90;;;;;;5045842;28;20509;-86
2022/12/11 10:47:28;;;;;;;12.37;6.47;;;-1.30;99.90;;;;;;5038555;28;20185;-86
2022/12/11 10:49:57;;;;;;;13.67;7.47;;;-1.20;99.90;;;;;;5047934;28;20660;-86
2022/12/11 10:52:46;;;;;;;12.30;6.90;;;-1.20;99.90;;;;;;5040805;28;20277;-86
2022/12/11 10:55:44;;;;;;;12.53;6.77;;;-1.20;99.90;;;;;;5039884;28;20474;-86
2022/12/11 10:58:18;;;;;;;13.03;6.97;;;-1.20;99.90;;;;;;5040618;28;20201;-86
2022/12/11 11:00:45;;;;;;;14.07;8.23;;;-1.20;99.90;;;;;;5045266;28;20188;-86
2022/12/11 11:03:25;;;;;;;12.50;6.90;;;-1.30;99.90;;;;;;5045227;28;20188;-86
2022/12/11 11:06:16;;;;;;;12.40;6.00;;;-1.20;99.90;;;;;;5055271;28;20304;-86
2022/12/11 11:08:47;;;;;;;11.70;7.23;;;-1.20;99.90;;;;;;5040931;28;20196;-86
2022/12/11 11:11:27;;;;;;;13.60;6.73;;;-1.20;99.90;;;;;;5044665;28;20683;-86
2022/12/11 11:14:17;;;;;;;10.47;6.47;;;-1.20;99.90;;;;;;5063057;28;20511;-86
2022/12/11 11:16:46;;;;;;;11.03;5.90;;;-1.20;99.90;;;;;;5066545;28;20627;-87
2022/12/11 11:19:38;;;;;;;11.90;6.53;;;-1.30;99.90;;;;;;5042072;28;20188;-87
2022/12/11 11:22:16;;;;;;;12.80;6.43;;;-1.30;99.90;;;;;;5041222;28;20281;-85
2022/12/11 11:24:55;;;;;;;13.47;6.50;;;-1.20;99.90;;;;;;5062577;28;20338;-87
2022/12/11 11:27:43;;;;;;;12.70;6.53;;;-1.20;99.90;;;;;;5044948;28;20207;-87
2022/12/11 11:30:20;;;;;;;11.07;6.47;;;-1.10;99.90;;;;;;5044566;28;20209;-86
2022/12/11 11:32:46;;;;;;;12.67;6.40;;;-0.90;99.90;;;;;;5055145;28;20253;-85
2022/12/11 11:35:11;;;;;;;12.03;6.57;;;-0.90;99.90;;;;;;5039496;28;20615;-86
2022/12/11 11:37:56;;;;;;;11.67;6.67;;;-0.90;99.90;;;;;;5058743;28;20182;-86
2022/12/11 11:40:27;;;;;;;12.57;7.30;;;-1.00;99.90;;;;;;5042802;28;20189;-87
2022/12/11 11:43:04;;;;;;;12.43;7.50;;;-0.90;99.90;;;;;;5044899;28;20190;-87
2022/12/11 11:45:48;;;;;;;14.43;7.10;;;-0.90;99.90;;;;;;5044833;28;20193;-87
2022/12/11 11:48:26;;;;;;;13.83;7.03;;;-0.90;99.90;;;;;;5044889;28;20190;-85
2022/12/11 11:50:53;;;;;;;11.17;7.17;;;-0.80;99.90;;;;;;5040251;28;20267;-87
2022/12/11 11:53:25;;;;;;;12.00;6.87;;;-0.80;99.90;;;;;;5040627;28;20719;-86
2022/12/11 11:56:13;;;;;;;12.47;6.17;;;-0.80;99.90;;;;;;5058231;28;20212;-86
2022/12/11 11:59:04;;;;;;;10.00;6.17;;;-0.70;99.90;;;;;;5049693;28;20863;-87
2022/12/11 12:01:31;;;;;;;10.13;6.13;;;-0.70;99.90;;;;;;5052172;28;20185;-87
2022/12/11 12:03:59;;;;;;;14.70;6.83;;;-0.80;99.90;;;;;;5079159;28;20184;-87
2022/12/11 12:06:56;;;;;;;13.30;7.10;;;-0.80;99.90;;;;;;5047729;28;20194;-85
2022/12/11 12:09:38;;;;;;;11.27;6.80;;;-0.80;99.90;;;;;;5048065;28;20265;-87
2022/12/11 12:12:19;;;;;;;14.60;7.20;;;-0.70;99.90;;;;;;5056176;28;20193;-86
2022/12/11 12:15:25;;;;;;;12.23;6.57;;;-0.70;99.90;;;;;;5047193;28;20168;-87
2022/12/11 12:18:03;;;;;;;12.67;7.30;;;-0.70;99.90;;;;;;5036673;28;20186;-87
2022/12/11 12:20:41;;;;;;;14.37;6.83;;;-0.70;99.90;;;;;;5057476;28;20170;-87
2022/12/11 12:23:32;;;;;;;14.50;7.30;;;-0.60;99.90;;;;;;5054679;28;20170;-88
2022/12/11 12:26:21;;;;;;;14.43;8.10;;;-0.50;99.90;;;;;;5045862;28;20617;-88
2022/12/11 12:28:56;;;;;;;11.93;6.97;;;-0.40;99.90;;;;;;5058735;28;20251;-87
2022/12/11 12:31:34;;;;;;;13.23;7.17;;;-0.40;99.90;;;;;;5050531;28;20585;-86
2022/12/11 12:34:29;;;;;;;13.80;7.67;;;-0.30;99.90;;;;;;5036680;28;20217;-85
2022/12/11 12:37:00;;;;;;;12.07;7.53;;;-0.30;99.90;;;;;;5038094;28;20234;-87
2022/12/11 12:39:54;;;;;;;12.63;7.83;;;-0.30;99.90;;;;;;5070056;28;20165;-87
2022/12/11 12:42:29;;;;;;;13.33;7.67;;;-0.20;99.90;;;;;;5036709;28;20666;-86
2022/12/11 12:45:13;;;;;;;12.57;7.63;;;-0.20;99.90;;;;;;5044898;28;20560;-87
2022/12/11 12:47:46;;;;;;;14.47;6.97;;;-0.20;99.90;;;;;;5050048;28;20176;-87
2022/12/11 12:50:16;;;;;;;13.90;7.93;;;-0.20;99.90;;;;;;5040115;28;20244;-88
2022/12/11 12:52:43;;;;;;;14.83;7.63;;;-0.20;99.90;;;;;;5055783;28;20250;-87
2022/12/11 12:55:21;;;;;;;14.60;7.97;;;-0.20;99.90;;;;;;5037599;28;20189;-88
2022/12/11 12:57:59;;;;;;;13.00;7.37;;;-0.10;99.90;;;;;;5039024;28;20184;-87
2022/12/11 13:00:42;;;;;;;11.07;7.17;;;0.00;99.90;;;;;;5073133;28;20184;-88
2022/12/11 13:03:21;;;;;;;14.77;8.00;;;0.00;99.90;;;;;;5056628;28;20680;-88
2022/12/11 13:06:08;;;;;;;14.30;8.00;;;0.10;99.90;;;;;;5055467;28;20188;-88
2022/12/11 13:08:38;;;;;;;11.93;7.07;;;0.20;99.90;;;;;;5074610;28;20173;-88